Time;durP1;ratioP1;P1;durP2;ratioP2;P2;SDS_P1;SDS_P2;PMS_P1;PMS_P2;Temp;Humidity;BMP_temperature;BMP_pressure;BME280_temperature;BME280_humidity;BME280_pressure;Samples;Min_cycle;Max_cycle;Signal;HPM_P1;HPM_P2
2021/03/17 00:00:09;;;;;;;10.18;7.45;;;4.40;99.90;;;;;;5014599;28;20046;-75
2021/03/17 00:02:53;;;;;;;10.23;6.45;;;4.40;99.90;;;;;;5015230;28;20506;-75
2021/03/17 00:05:40;;;;;;;11.77;7.50;;;4.40;99.90;;;;;;5015129;28;20044;-76
2021/03/17 00:08:25;;;;;;;11.80;8.32;;;4.50;99.90;;;;;;5015295;28;20041;-75
2021/03/17 00:11:10;;;;;;;11.23;8.18;;;4.50;99.90;;;;;;5014481;28;20053;-75
2021/03/17 00:13:54;;;;;;;11.10;7.53;;;4.50;99.90;;;;;;5021011;28;20109;-75
2021/03/17 00:16:39;;;;;;;11.32;7.85;;;4.50;99.90;;;;;;5019242;28;20048;-75
2021/03/17 00:19:24;;;;;;;10.57;7.15;;;4.50;99.90;;;;;;5023093;28;20057;-75
2021/03/17 00:22:09;;;;;;;11.82;6.95;;;4.50;99.90;;;;;;5026229;28;20388;-75
2021/03/17 00:24:54;;;;;;;10.27;8.20;;;4.50;99.90;;;;;;5029566;28;20068;-76
2021/03/17 00:27:38;;;;;;;12.30;8.23;;;4.50;99.90;;;;;;5020235;28;20041;-75
2021/03/17 00:30:23;;;;;;;13.02;8.68;;;4.40;99.90;;;;;;5029978;28;20056;-76
2021/03/17 00:33:10;;;;;;;12.55;7.72;;;4.50;99.90;;;;;;5025550;28;20511;-75
2021/03/17 00:35:55;;;;;;;14.02;8.48;;;4.50;99.90;;;;;;5024974;28;20048;-75
2021/03/17 00:38:39;;;;;;;11.85;7.47;;;4.50;99.90;;;;;;5012710;28;20049;-75
2021/03/17 00:41:24;;;;;;;11.35;7.53;;;4.50;99.90;;;;;;5032013;28;20052;-75
2021/03/17 00:44:09;;;;;;;11.80;7.40;;;4.40;99.90;;;;;;5018175;28;20045;-75
2021/03/17 00:46:53;;;;;;;11.75;8.13;;;4.50;99.90;;;;;;5016727;28;20052;-76
2021/03/17 00:49:25;;;;;;;11.63;7.53;;;4.50;99.90;;;;;;5025536;28;20046;-75
2021/03/17 00:51:53;;;;;;;12.18;7.95;;;4.50;99.90;;;;;;5013853;28;20041;-75
2021/03/17 00:54:37;;;;;;;11.20;7.97;;;4.50;99.90;;;;;;5020748;28;20506;-75
2021/03/17 00:57:22;;;;;;;10.10;7.38;;;4.50;99.90;;;;;;5023238;28;20513;-75
2021/03/17 00:59:48;;;;;;;11.10;8.07;;;4.50;99.90;;;;;;5029054;28;20033;-75
2021/03/17 01:02:14;;;;;;;12.95;9.07;;;4.50;99.90;;;;;;5031069;28;20034;-75
2021/03/17 01:05:24;;;;;;;13.90;8.88;;;4.50;99.90;;;;;;5015630;28;20352;-75
2021/03/17 01:07:50;;;;;;;15.73;8.68;;;4.50;99.90;;;;;;5013622;28;20030;-76
2021/03/17 01:10:25;;;;;;;13.48;9.60;;;4.50;99.90;;;;;;5013435;28;20046;-75
2021/03/17 01:12:51;;;;;;;15.50;10.70;;;4.50;99.90;;;;;;5022730;28;20040;-75
2021/03/17 01:15:20;;;;;;;14.32;9.90;;;4.50;99.90;;;;;;5017477;28;20044;-75
2021/03/17 01:17:46;;;;;;;17.92;11.32;;;4.50;99.90;;;;;;5019609;28;20037;-75
2021/03/17 01:20:13;;;;;;;16.83;9.77;;;4.50;99.90;;;;;;5023342;28;20029;-75
2021/03/17 01:22:40;;;;;;;16.00;10.20;;;4.50;99.90;;;;;;5017606;28;20485;-75
2021/03/17 01:25:14;;;;;;;12.63;9.45;;;4.50;99.90;;;;;;5013010;28;20041;-75
2021/03/17 01:27:41;;;;;;;16.35;10.43;;;4.40;99.90;;;;;;5013254;28;20049;-75
2021/03/17 01:30:08;;;;;;;16.98;10.35;;;4.30;99.90;;;;;;5013307;28;20030;-75
2021/03/17 01:32:35;;;;;;;19.10;10.50;;;4.30;99.90;;;;;;5013382;28;20038;-75
2021/03/17 01:35:07;;;;;;;16.40;10.68;;;4.30;99.90;;;;;;5028482;28;20478;-75
2021/03/17 01:37:33;;;;;;;18.13;11.45;;;4.30;99.90;;;;;;5013637;28;20030;-75
2021/03/17 01:39:59;;;;;;;16.52;10.10;;;4.30;99.90;;;;;;5013039;28;20045;-75
2021/03/17 01:42:26;;;;;;;18.88;11.00;;;4.30;99.90;;;;;;5013516;28;20050;-75
2021/03/17 01:44:52;;;;;;;17.85;11.55;;;4.30;99.90;;;;;;5024838;28;20415;-75
2021/03/17 01:47:18;;;;;;;14.68;10.27;;;4.20;99.90;;;;;;5030637;28;20223;-75
2021/03/17 01:49:44;;;;;;;15.13;10.30;;;4.20;99.90;;;;;;5031411;28;20036;-75
2021/03/17 01:52:11;;;;;;;17.92;11.65;;;4.20;99.90;;;;;;5030582;28;20033;-75
2021/03/17 01:54:37;;;;;;;15.93;10.98;;;4.20;99.90;;;;;;5014200;28;20025;-75
2021/03/17 01:57:04;;;;;;;19.10;13.05;;;4.20;99.90;;;;;;5021030;28;20387;-75
2021/03/17 01:59:32;;;;;;;19.13;11.60;;;4.20;99.90;;;;;;5014134;28;20040;-75
2021/03/17 02:01:58;;;;;;;17.63;10.95;;;4.20;99.90;;;;;;5012950;28;20048;-75
2021/03/17 02:04:25;;;;;;;15.43;10.55;;;4.20;99.90;;;;;;5011768;28;20037;-75
2021/03/17 02:06:51;;;;;;;16.38;10.13;;;4.20;99.90;;;;;;5013260;28;20050;-76
2021/03/17 02:09:18;;;;;;;16.42;10.52;;;4.20;99.90;;;;;;5012053;28;20038;-75
2021/03/17 02:11:52;;;;;;;15.32;9.95;;;4.20;99.90;;;;;;5013164;28;20443;-75
2021/03/17 02:14:55;;;;;;;16.15;10.65;;;4.20;99.90;;;;;;5014011;28;20040;-75
2021/03/17 02:17:26;;;;;;;14.20;8.75;;;4.20;99.90;;;;;;5015911;28;20045;-75
2021/03/17 02:20:20;;;;;;;16.08;10.52;;;4.30;99.90;;;;;;5012787;28;20057;-75
2021/03/17 02:22:58;;;;;;;14.50;9.80;;;4.30;99.90;;;;;;5023814;28;20042;-75
2021/03/17 02:26:01;;;;;;;15.20;9.98;;;4.30;99.90;;;;;;5010860;28;20037;-75
2021/03/17 02:29:08;;;;;;;13.07;8.63;;;4.30;99.90;;;;;;5021472;28;20053;-75
2021/03/17 02:32:01;;;;;;;12.48;9.20;;;4.30;99.90;;;;;;5029641;28;20037;-72
2021/03/17 02:34:33;;;;;;;16.88;9.55;;;4.30;99.90;;;;;;5026188;28;20042;-73
2021/03/17 02:37:04;;;;;;;14.55;9.68;;;4.20;99.90;;;;;;5012272;28;20368;-74
2021/03/17 02:39:36;;;;;;;13.25;8.80;;;4.30;99.90;;;;;;5012661;28;20042;-75
2021/03/17 02:42:09;;;;;;;12.27;8.48;;;4.20;99.90;;;;;;5016241;28;20069;-74
2021/03/17 02:44:51;;;;;;;12.98;8.43;;;4.20;99.90;;;;;;5012462;28;20026;-74
2021/03/17 02:47:17;;;;;;;12.38;8.30;;;4.20;99.90;;;;;;5011402;28;20053;-74
2021/03/17 02:49:47;;;;;;;14.88;9.25;;;4.30;99.90;;;;;;5026514;28;20483;-74
2021/03/17 02:52:14;;;;;;;12.18;8.90;;;4.20;99.90;;;;;;5010853;28;20045;-74
2021/03/17 02:54:46;;;;;;;15.73;9.40;;;4.20;99.90;;;;;;5021773;28;20033;-74
2021/03/17 02:57:21;;;;;;;17.00;9.70;;;4.20;99.90;;;;;;5029498;28;20509;-74
2021/03/17 02:59:56;;;;;;;13.68;8.68;;;4.20;99.90;;;;;;5012103;28;20045;-74
2021/03/17 03:02:23;;;;;;;11.48;8.45;;;4.20;99.90;;;;;;5014774;28;20037;-74
2021/03/17 03:04:53;;;;;;;14.10;9.02;;;4.20;99.90;;;;;;5029145;28;20036;-75
2021/03/17 03:07:21;;;;;;;15.73;9.20;;;4.20;99.90;;;;;;5032733;28;20116;-74
2021/03/17 03:09:50;;;;;;;14.65;9.45;;;4.20;99.90;;;;;;5018704;28;20288;-74
2021/03/17 03:12:18;;;;;;;14.30;9.30;;;4.20;99.90;;;;;;5019710;28;20042;-75
2021/03/17 03:14:45;;;;;;;13.80;9.32;;;4.10;99.90;;;;;;5033023;28;20042;-75
2021/03/17 03:17:13;;;;;;;14.15;8.80;;;4.10;99.90;;;;;;5033048;28;20040;-75
2021/03/17 03:19:46;;;;;;;17.85;10.35;;;4.10;99.90;;;;;;5015956;28;20038;-75
2021/03/17 03:22:13;;;;;;;15.13;9.88;;;4.10;99.90;;;;;;5026271;28;20034;-75
2021/03/17 03:24:41;;;;;;;14.32;10.27;;;4.10;99.90;;;;;;5019764;28;20384;-75
2021/03/17 03:27:08;;;;;;;17.17;10.18;;;4.10;99.90;;;;;;5014936;28;20034;-75
2021/03/17 03:29:35;;;;;;;15.55;11.30;;;4.10;99.90;;;;;;5016165;28;20049;-74
2021/03/17 03:32:05;;;;;;;19.33;11.07;;;4.00;99.90;;;;;;5015441;28;20060;-74
2021/03/17 03:34:31;;;;;;;15.48;10.45;;;4.00;99.90;;;;;;5026965;28;20046;-75
2021/03/17 03:36:58;;;;;;;16.85;11.27;;;4.00;99.90;;;;;;5022293;28;20034;-75
2021/03/17 03:39:24;;;;;;;18.23;11.65;;;4.00;99.90;;;;;;5015414;28;20033;-74
2021/03/17 03:41:51;;;;;;;18.23;11.20;;;3.90;99.90;;;;;;5015375;28;20030;-74
2021/03/17 03:44:18;;;;;;;18.63;11.80;;;4.00;99.90;;;;;;5032770;28;20055;-74
2021/03/17 03:46:44;;;;;;;18.38;11.45;;;4.00;99.90;;;;;;5019481;28;20053;-74
2021/03/17 03:49:10;;;;;;;22.52;12.55;;;3.90;99.90;;;;;;5014964;28;20061;-74
2021/03/17 03:51:41;;;;;;;21.88;13.60;;;3.90;99.90;;;;;;5029662;28;20100;-74
2021/03/17 03:54:24;;;;;;;23.83;13.45;;;3.90;99.90;;;;;;5017090;28;20046;-74
2021/03/17 03:57:01;;;;;;;25.70;13.88;;;3.90;99.90;;;;;;5015028;28;20041;-74
2021/03/17 03:59:35;;;;;;;24.27;13.73;;;3.90;99.90;;;;;;5015000;28;20054;-74
2021/03/17 04:02:03;;;;;;;28.42;14.02;;;3.90;99.90;;;;;;5021987;28;20069;-74
2021/03/17 04:04:37;;;;;;;23.67;14.18;;;3.90;99.90;;;;;;5033313;28;20038;-74
2021/03/17 04:07:05;;;;;;;25.05;15.57;;;3.90;99.90;;;;;;5027198;28;20038;-74
2021/03/17 04:09:53;;;;;;;25.70;15.18;;;3.80;99.90;;;;;;5015151;28;20030;-74
2021/03/17 04:12:21;;;;;;;25.52;14.57;;;3.80;99.90;;;;;;5014491;28;20049;-75
2021/03/17 04:14:57;;;;;;;25.70;13.55;;;3.90;99.90;;;;;;5014659;28;20494;-74
2021/03/17 04:17:37;;;;;;;28.73;14.13;;;3.80;99.90;;;;;;5015268;28;20045;-74
2021/03/17 04:20:09;;;;;;;27.63;15.70;;;3.80;99.90;;;;;;5014209;28;20383;-74
2021/03/17 04:22:37;;;;;;;31.40;15.85;;;3.80;99.90;;;;;;5014665;28;20454;-74
2021/03/17 04:25:06;;;;;;;25.40;15.38;;;3.80;99.90;;;;;;5015142;28;20038;-74
2021/03/17 04:27:34;;;;;;;29.13;15.88;;;3.80;99.90;;;;;;5013205;28;20061;-74
2021/03/17 04:30:03;;;;;;;31.25;16.00;;;3.80;99.90;;;;;;5014231;28;20029;-74
2021/03/17 04:32:31;;;;;;;30.13;15.68;;;3.90;99.90;;;;;;5014471;28;20042;-74
2021/03/17 04:34:58;;;;;;;30.17;15.68;;;3.80;99.90;;;;;;5014589;28;20042;-74
2021/03/17 04:37:28;;;;;;;30.38;16.17;;;3.80;99.90;;;;;;5014194;28;20041;-74
2021/03/17 04:39:56;;;;;;;32.83;17.50;;;3.80;99.90;;;;;;5014022;28;20033;-74
2021/03/17 04:42:23;;;;;;;35.53;17.35;;;3.80;99.90;;;;;;5013803;28;20041;-73
2021/03/17 04:44:49;;;;;;;30.90;17.10;;;3.80;99.90;;;;;;5014590;28;20098;-75
2021/03/17 04:47:16;;;;;;;31.92;17.00;;;3.80;99.90;;;;;;5024346;28;20053;-74
2021/03/17 04:49:45;;;;;;;37.00;17.63;;;3.80;99.90;;;;;;5020009;28;20034;-75
2021/03/17 04:52:13;;;;;;;36.88;17.20;;;3.80;99.90;;;;;;5030551;28;20041;-74
2021/03/17 04:54:40;;;;;;;38.97;18.27;;;3.70;99.90;;;;;;5015123;28;20026;-74
2021/03/17 04:57:13;;;;;;;36.05;18.17;;;3.80;99.90;;;;;;5026830;28;20040;-75
2021/03/17 04:59:40;;;;;;;35.50;18.35;;;3.80;99.90;;;;;;5031228;28;20041;-74
2021/03/17 05:02:10;;;;;;;42.53;18.67;;;3.70;99.90;;;;;;5031771;28;20057;-74
2021/03/17 05:04:37;;;;;;;41.17;18.02;;;3.70;99.90;;;;;;5019796;28;20538;-74
2021/03/17 05:07:04;;;;;;;37.67;18.02;;;3.70;99.90;;;;;;5021111;28;20029;-74
2021/03/17 05:09:32;;;;;;;39.42;18.35;;;3.80;99.90;;;;;;5013743;28;20029;-75
2021/03/17 05:12:00;;;;;;;39.55;18.42;;;3.80;99.90;;;;;;5032259;28;20041;-75
2021/03/17 05:14:27;;;;;;;37.13;18.75;;;3.80;99.90;;;;;;5031878;28;20033;-75
2021/03/17 05:16:53;;;;;;;40.60;20.42;;;3.80;99.90;;;;;;5018385;28;20510;-75
2021/03/17 05:19:20;;;;;;;41.33;20.15;;;3.80;99.90;;;;;;5013402;28;20589;-76
2021/03/17 05:21:48;;;;;;;45.42;21.88;;;3.80;99.90;;;;;;5013335;28;20041;-76
2021/03/17 05:24:15;;;;;;;46.10;20.10;;;3.80;99.90;;;;;;5016546;28;20042;-75
2021/03/17 05:26:42;;;;;;;50.35;21.15;;;3.80;99.90;;;;;;5032081;28;20498;-74
2021/03/17 05:29:09;;;;;;;44.13;20.80;;;3.80;99.90;;;;;;5031513;28;20041;-74
2021/03/17 05:31:37;;;;;;;47.50;22.58;;;3.80;99.90;;;;;;5013269;28;20055;-75
2021/03/17 05:34:04;;;;;;;46.42;21.58;;;3.80;99.90;;;;;;5028762;28;20041;-74
2021/03/17 05:36:33;;;;;;;42.25;21.52;;;3.80;99.90;;;;;;5025021;28;20038;-75
2021/03/17 05:38:59;;;;;;;44.03;21.17;;;3.80;99.90;;;;;;5013335;28;20057;-75
2021/03/17 05:41:27;;;;;;;47.08;21.67;;;3.80;99.90;;;;;;5036065;28;20068;-75
2021/03/17 05:43:56;;;;;;;47.13;21.35;;;3.80;99.90;;;;;;5026676;28;20030;-75
2021/03/17 05:46:22;;;;;;;47.30;22.52;;;3.70;99.90;;;;;;5024809;28;20045;-74
2021/03/17 05:48:49;;;;;;;43.38;20.63;;;3.70;99.90;;;;;;5020444;28;20046;-75
2021/03/17 05:51:16;;;;;;;42.38;20.05;;;3.70;99.90;;;;;;5012318;28;20468;-75
2021/03/17 05:53:43;;;;;;;45.05;20.85;;;3.70;99.90;;;;;;5013372;28;20053;-75
2021/03/17 05:56:10;;;;;;;42.72;20.95;;;3.60;99.90;;;;;;5012662;28;20034;-75
2021/03/17 05:58:37;;;;;;;52.35;22.23;;;3.60;99.90;;;;;;5025191;28;20783;-75
2021/03/17 06:01:03;;;;;;;51.50;22.40;;;3.70;99.90;;;;;;5022548;28;20381;-74
2021/03/17 06:03:32;;;;;;;51.13;21.40;;;3.70;99.90;;;;;;5024542;28;20033;-78
2021/03/17 06:05:58;;;;;;;58.20;25.77;;;3.70;99.90;;;;;;5020089;28;20034;-79
2021/03/17 06:08:29;;;;;;;52.83;24.00;;;3.70;99.90;;;;;;5023009;28;20030;-78
2021/03/17 06:10:57;;;;;;;52.65;22.38;;;3.70;99.90;;;;;;5029205;28;20033;-78
2021/03/17 06:13:26;;;;;;;55.90;23.73;;;3.70;99.90;;;;;;5022130;28;20044;-78
2021/03/17 06:15:57;;;;;;;51.17;23.83;;;3.80;99.90;;;;;;5018506;28;20040;-78
2021/03/17 06:18:41;;;;;;;47.78;23.77;;;3.80;99.90;;;;;;5028955;28;20034;-78
2021/03/17 06:21:09;;;;;;;48.55;22.75;;;3.70;99.90;;;;;;5011890;28;20076;-78
2021/03/17 06:23:35;;;;;;;52.88;22.33;;;3.70;99.90;;;;;;5014628;28;20049;-77
2021/03/17 06:26:01;;;;;;;56.92;23.20;;;3.70;99.90;;;;;;5019870;28;20029;-77
2021/03/17 06:28:28;;;;;;;53.50;22.60;;;3.90;99.90;;;;;;5011079;28;20042;-77
2021/03/17 06:30:56;;;;;;;41.40;20.63;;;4.10;99.90;;;;;;5021916;28;20045;-76
2021/03/17 06:33:22;;;;;;;37.85;20.52;;;4.50;99.90;;;;;;5012193;28;20277;-77
2021/03/17 06:36:06;;;;;;;29.55;16.92;;;4.80;99.90;;;;;;5021336;28;20387;-77
2021/03/17 06:38:32;;;;;;;27.58;16.52;;;5.10;99.90;;;;;;5017161;28;20041;-77
2021/03/17 06:40:59;;;;;;;25.85;16.10;;;5.50;99.90;;;;;;5036197;28;20035;-77
2021/03/17 06:43:43;;;;;;;25.83;14.85;;;5.70;99.90;;;;;;5026665;28;20041;-77
2021/03/17 06:46:11;;;;;;;22.73;15.50;;;6.30;99.90;;;;;;5016033;28;20045;-76
2021/03/17 06:48:39;;;;;;;21.83;14.23;;;6.60;99.90;;;;;;5018210;28;20052;-76
2021/03/17 06:51:14;;;;;;;21.23;13.80;;;6.90;99.90;;;;;;5034464;28;20044;-76
2021/03/17 06:53:54;;;;;;;21.60;14.35;;;6.90;99.90;;;;;;5014914;28;20030;-76
2021/03/17 06:56:28;;;;;;;17.95;12.35;;;6.80;99.90;;;;;;5015949;28;20672;-76
2021/03/17 06:58:58;;;;;;;17.63;11.63;;;7.10;99.90;;;;;;5016751;28;20053;-76
2021/03/17 07:01:35;;;;;;;19.92;11.55;;;6.20;99.90;;;;;;5016164;28;20053;-74
2021/03/17 07:04:19;;;;;;;19.20;11.10;;;5.70;99.90;;;;;;5016506;28;20053;-72
2021/03/17 07:06:59;;;;;;;16.05;10.57;;;5.40;99.90;;;;;;5016342;28;20030;-73
2021/03/17 07:09:27;;;;;;;14.85;9.85;;;5.10;99.90;;;;;;5015657;28;20037;-72
2021/03/17 07:12:07;;;;;;;16.52;10.27;;;5.20;99.90;;;;;;5014977;28;20463;-73
2021/03/17 07:14:42;;;;;;;15.13;9.25;;;5.90;99.90;;;;;;5014355;28;20046;-73
2021/03/17 07:17:26;;;;;;;16.05;9.60;;;6.00;99.90;;;;;;5016122;28;20053;-73
2021/03/17 07:19:53;;;;;;;14.05;9.43;;;5.70;99.90;;;;;;5022331;28;20383;-73
2021/03/17 07:22:20;;;;;;;15.38;10.20;;;5.50;99.90;;;;;;5030574;28;20034;-73
2021/03/17 07:24:52;;;;;;;16.98;8.90;;;5.80;99.90;;;;;;5014795;28;20050;-72
2021/03/17 07:27:21;;;;;;;15.50;8.82;;;5.70;99.90;;;;;;5024588;28;20034;-73
2021/03/17 07:30:03;;;;;;;13.07;8.30;;;5.60;99.90;;;;;;5015930;28;20046;-73
2021/03/17 07:33:03;;;;;;;13.02;8.35;;;5.60;99.90;;;;;;5025571;28;20045;-74
2021/03/17 07:35:35;;;;;;;14.85;8.82;;;5.70;99.90;;;;;;5015702;28;20041;-74
2021/03/17 07:38:14;;;;;;;12.00;8.18;;;5.60;99.90;;;;;;5015816;28;20026;-74
2021/03/17 07:40:46;;;;;;;13.85;8.77;;;5.50;99.90;;;;;;5015674;28;20037;-73
2021/03/17 07:43:14;;;;;;;13.93;8.27;;;5.40;99.90;;;;;;5016023;28;20038;-73
2021/03/17 07:45:41;;;;;;;14.80;8.73;;;5.40;99.90;;;;;;5014275;28;20037;-74
2021/03/17 07:48:09;;;;;;;13.85;7.35;;;6.30;99.90;;;;;;5029652;28;20034;-74
2021/03/17 07:50:38;;;;;;;16.98;8.32;;;7.20;99.90;;;;;;5015413;28;20051;-74
2021/03/17 07:53:08;;;;;;;11.95;7.13;;;8.40;99.90;;;;;;5015214;28;20038;-75
2021/03/17 07:55:38;;;;;;;11.50;7.22;;;8.30;99.40;;;;;;5016716;28;20045;-74
2021/03/17 07:58:04;;;;;;;11.48;7.63;;;8.20;97.90;;;;;;5033503;28;20340;-74
2021/03/17 08:00:31;;;;;;;9.90;7.25;;;7.70;97.80;;;;;;5033463;28;20025;-74
2021/03/17 08:02:58;;;;;;;10.35;7.45;;;7.30;98.90;;;;;;5018322;28;20049;-74
2021/03/17 08:05:24;;;;;;;12.98;8.27;;;7.00;99.50;;;;;;5025731;28;20022;-74
2021/03/17 08:07:52;;;;;;;13.75;8.35;;;6.60;99.90;;;;;;5023267;28;20041;-74
2021/03/17 08:10:19;;;;;;;12.27;7.88;;;7.10;99.90;;;;;;5015003;28;20026;-74
2021/03/17 08:12:46;;;;;;;13.77;8.43;;;7.90;99.10;;;;;;5015214;28;20451;-74
2021/03/17 08:15:14;;;;;;;10.25;6.95;;;7.80;97.70;;;;;;5014671;28;20026;-74
2021/03/17 08:17:41;;;;;;;13.18;8.70;;;7.90;97.50;;;;;;5015159;28;20029;-74
2021/03/17 08:20:23;;;;;;;12.80;8.27;;;8.00;96.50;;;;;;5014818;28;20026;-74
2021/03/17 08:22:51;;;;;;;14.75;7.82;;;7.30;97.80;;;;;;5014944;28;20030;-74
2021/03/17 08:25:45;;;;;;;11.18;8.07;;;7.00;99.10;;;;;;5016981;28;20044;-74
2021/03/17 08:28:22;;;;;;;15.10;8.75;;;6.40;99.90;;;;;;5018063;28;20038;-74
2021/03/17 08:30:51;;;;;;;13.48;8.60;;;6.20;99.90;;;;;;5028369;28;20030;-73
2021/03/17 08:33:31;;;;;;;13.13;8.13;;;6.10;99.90;;;;;;5014601;28;20041;-74
2021/03/17 08:36:09;;;;;;;15.65;9.18;;;6.10;99.90;;;;;;5015163;28;20041;-73
2021/03/17 08:38:48;;;;;;;14.43;8.65;;;6.00;99.90;;;;;;5019118;28;20022;-73
2021/03/17 08:41:16;;;;;;;16.27;9.45;;;5.90;99.90;;;;;;5013944;28;20042;-73
2021/03/17 08:43:44;;;;;;;15.40;8.68;;;5.80;99.90;;;;;;5014588;28;20045;-73
2021/03/17 08:46:19;;;;;;;14.55;9.70;;;5.70;99.90;;;;;;5026572;28;20052;-73
2021/03/17 08:49:05;;;;;;;16.95;9.40;;;5.70;99.90;;;;;;5023814;28;20026;-73
2021/03/17 08:51:46;;;;;;;13.00;8.90;;;5.60;99.90;;;;;;5014419;28;20037;-74
2021/03/17 08:54:31;;;;;;;16.27;8.88;;;5.60;99.90;;;;;;5014093;28;20036;-74
2021/03/17 08:57:08;;;;;;;14.40;9.70;;;5.70;99.90;;;;;;5014322;28;20029;-73
2021/03/17 08:59:51;;;;;;;14.50;9.27;;;5.80;99.90;;;;;;5013661;28;20029;-73
2021/03/17 09:02:26;;;;;;;19.33;10.25;;;5.70;99.90;;;;;;5014389;28;20049;-74
2021/03/17 09:05:00;;;;;;;14.50;8.57;;;5.70;99.90;;;;;;5020948;28;20041;-73
2021/03/17 09:07:32;;;;;;;15.23;9.77;;;5.80;99.90;;;;;;5013985;28;20042;-73
2021/03/17 09:10:09;;;;;;;13.65;8.27;;;5.90;99.90;;;;;;5013809;28;20057;-73
2021/03/17 09:12:35;;;;;;;13.38;8.25;;;6.00;99.90;;;;;;5013979;28;20037;-73
2021/03/17 09:15:13;;;;;;;14.27;8.52;;;5.80;99.90;;;;;;5026924;28;20029;-74
2021/03/17 09:17:50;;;;;;;18.90;10.20;;;5.50;99.90;;;;;;5014216;28;20053;-74
2021/03/17 09:20:38;;;;;;;16.38;9.95;;;5.40;99.90;;;;;;5013835;28;20034;-74
2021/03/17 09:23:24;;;;;;;15.52;8.73;;;5.30;99.90;;;;;;5023906;28;20044;-74
2021/03/17 09:25:50;;;;;;;14.57;9.20;;;5.20;99.90;;;;;;5024134;28;20057;-74
2021/03/17 09:28:28;;;;;;;17.17;12.02;;;5.10;99.90;;;;;;5021795;28;20022;-74
2021/03/17 09:31:01;;;;;;;15.93;9.50;;;5.10;99.90;;;;;;5024178;28;20050;-74
2021/03/17 09:33:33;;;;;;;15.07;10.30;;;5.00;99.90;;;;;;5031751;28;20034;-74
2021/03/17 09:36:05;;;;;;;19.17;10.60;;;4.90;99.90;;;;;;5025837;28;20030;-74
2021/03/17 09:38:35;;;;;;;20.98;10.93;;;4.80;99.90;;;;;;5013849;28;20033;-74
2021/03/17 09:41:10;;;;;;;17.10;9.68;;;4.70;99.90;;;;;;5032709;28;20022;-74
2021/03/17 09:43:38;;;;;;;19.98;12.13;;;4.60;99.90;;;;;;5028434;28;20047;-74
2021/03/17 09:46:27;;;;;;;22.13;11.75;;;4.60;99.90;;;;;;5013413;28;20044;-74
2021/03/17 09:48:59;;;;;;;18.92;11.25;;;4.50;99.90;;;;;;5013722;28;20049;-74
2021/03/17 09:51:37;;;;;;;18.70;11.23;;;4.40;99.90;;;;;;5013353;28;20070;-74
2021/03/17 09:54:07;;;;;;;17.08;10.10;;;4.40;99.90;;;;;;5023547;28;20037;-74
2021/03/17 09:56:48;;;;;;;21.30;11.05;;;4.30;99.90;;;;;;5015404;28;20030;-74
2021/03/17 09:59:14;;;;;;;;;;;4.40;99.90;;;;;;5031617;28;20052;-74
2021/03/17 10:02:17;;;;;;;17.02;10.25;;;4.50;99.90;;;;;;5013425;28;19922;-73
2021/03/17 10:04:48;;;;;;;18.05;10.05;;;4.60;99.90;;;;;;5019979;28;20042;-73
2021/03/17 10:07:23;;;;;;;14.00;8.50;;;4.80;99.90;;;;;;5019130;28;20084;-74
2021/03/17 10:09:51;;;;;;;18.15;9.25;;;4.80;99.90;;;;;;5017067;28;20032;-74
2021/03/17 10:12:25;;;;;;;12.02;7.45;;;4.90;99.90;;;;;;5015806;28;20463;-75
2021/03/17 10:15:00;;;;;;;14.02;8.82;;;4.90;99.90;;;;;;5013468;28;20034;-74
2021/03/17 10:17:30;;;;;;;14.20;8.65;;;4.90;99.90;;;;;;5019135;28;20313;-74
2021/03/17 10:20:00;;;;;;;13.07;7.93;;;4.90;99.90;;;;;;5026859;28;20399;-74
2021/03/17 10:22:28;;;;;;;11.18;7.10;;;5.00;99.90;;;;;;5011617;28;20267;-74
2021/03/17 10:24:56;;;;;;;14.60;7.70;;;4.70;99.90;;;;;;5020902;28;20040;-73
2021/03/17 10:27:47;;;;;;;10.52;6.93;;;4.60;99.90;;;;;;5019705;28;20041;-73
2021/03/17 10:30:24;;;;;;;15.02;9.55;;;4.40;99.90;;;;;;5012891;28;20042;-73
2021/03/17 10:32:53;;;;;;;15.55;8.50;;;4.30;99.90;;;;;;5011958;28;20468;-73
2021/03/17 10:35:19;;;;;;;12.90;7.68;;;4.20;99.90;;;;;;5012499;28;20041;-73
2021/03/17 10:37:46;;;;;;;12.70;7.30;;;4.10;99.90;;;;;;5013153;28;20026;-73
2021/03/17 10:40:18;;;;;;;12.07;7.20;;;4.10;99.90;;;;;;5012617;28;20030;-74
2021/03/17 10:43:08;;;;;;;17.63;8.27;;;4.20;99.90;;;;;;5013035;28;20041;-74
2021/03/17 10:45:52;;;;;;;14.40;7.72;;;4.50;99.90;;;;;;5030876;28;20057;-74
2021/03/17 10:48:26;;;;;;;12.27;7.13;;;5.00;99.90;;;;;;5011241;28;20085;-75
2021/03/17 10:50:56;;;;;;;11.15;7.35;;;5.40;99.90;;;;;;5012745;28;20046;-75
2021/03/17 10:53:28;;;;;;;10.65;7.30;;;5.70;99.90;;;;;;5012333;28;20050;-74
2021/03/17 10:56:00;;;;;;;11.90;7.05;;;5.80;99.90;;;;;;5012815;28;20030;-74
2021/03/17 10:58:29;;;;;;;13.82;7.65;;;6.10;99.90;;;;;;5012463;28;20030;-75
2021/03/17 11:00:57;;;;;;;10.50;7.22;;;6.10;99.90;;;;;;5013099;28;20037;-75
2021/03/17 11:03:27;;;;;;;10.88;7.32;;;6.20;99.90;;;;;;5012341;28;20057;-75
2021/03/17 11:06:16;;;;;;;11.05;7.18;;;6.10;99.90;;;;;;5012288;28;20034;-74
2021/03/17 11:09:06;;;;;;;11.52;6.85;;;6.20;99.90;;;;;;5012876;28;20037;-74
2021/03/17 11:11:47;;;;;;;12.45;7.85;;;6.10;99.90;;;;;;5013005;28;20038;-75
2021/03/17 11:14:34;;;;;;;10.95;7.82;;;5.90;99.90;;;;;;5017587;28;20037;-74
2021/03/17 11:17:08;;;;;;;12.50;7.22;;;5.90;99.90;;;;;;5012512;28;20359;-75
2021/03/17 11:19:34;;;;;;;12.32;7.72;;;5.60;99.90;;;;;;5015522;28;20045;-74
2021/03/17 11:22:00;;;;;;;9.95;6.43;;;5.60;99.90;;;;;;5031725;28;20036;-74
2021/03/17 11:24:27;;;;;;;8.98;5.75;;;5.60;99.90;;;;;;5020887;28;20034;-74
2021/03/17 11:26:53;;;;;;;9.73;6.38;;;5.60;99.90;;;;;;5027751;28;20033;-73
2021/03/17 11:29:22;;;;;;;10.77;6.97;;;5.60;99.90;;;;;;5016623;28;20045;-74
2021/03/17 11:31:54;;;;;;;10.88;6.65;;;5.80;99.90;;;;;;5023562;28;20038;-74
2021/03/17 11:34:21;;;;;;;13.25;7.68;;;5.90;99.90;;;;;;5033072;28;20033;-74
2021/03/17 11:36:48;;;;;;;9.15;6.28;;;6.00;99.90;;;;;;5035442;28;20037;-74
2021/03/17 11:39:17;;;;;;;8.10;6.57;;;6.30;99.90;;;;;;5017588;28;20363;-72
2021/03/17 11:41:46;;;;;;;8.40;6.07;;;6.60;99.90;;;;;;5016451;28;20037;-74
2021/03/17 11:44:19;;;;;;;7.55;5.10;;;6.80;99.90;;;;;;5031508;28;20034;-74
2021/03/17 11:46:45;;;;;;;6.03;4.20;;;7.20;99.90;;;;;;5016006;28;20038;-74
2021/03/17 11:49:16;;;;;;;5.78;3.92;;;7.50;99.90;;;;;;5026394;28;20033;-74
2021/03/17 11:51:44;;;;;;;4.40;2.75;;;7.40;99.90;;;;;;5026110;28;20490;-75
2021/03/17 11:54:10;;;;;;;4.95;3.35;;;7.10;99.90;;;;;;5015273;28;20038;-74
2021/03/17 11:56:37;;;;;;;7.88;3.35;;;7.30;99.90;;;;;;5033136;28;20085;-74
2021/03/17 11:59:03;;;;;;;4.88;2.10;;;7.30;99.90;;;;;;5022390;28;20032;-74
2021/03/17 12:01:29;;;;;;;3.28;2.13;;;7.10;99.90;;;;;;5029949;28;20034;-75
2021/03/17 12:03:56;;;;;;;4.00;2.30;;;7.10;99.90;;;;;;5025058;28;20041;-74
2021/03/17 12:06:22;;;;;;;2.22;1.30;;;7.00;99.90;;;;;;5018968;28;20447;-74
2021/03/17 12:08:48;;;;;;;1.50;0.73;;;7.10;99.90;;;;;;5028246;28;20034;-74
2021/03/17 12:11:16;;;;;;;2.22;1.30;;;7.40;99.90;;;;;;5016137;28;20388;-74
2021/03/17 12:13:43;;;;;;;2.08;1.42;;;7.30;98.40;;;;;;5029623;28;20033;-74
2021/03/17 12:16:09;;;;;;;2.45;1.20;;;7.30;96.00;;;;;;5014798;28;20034;-74
2021/03/17 12:18:35;;;;;;;2.38;1.27;;;7.40;95.00;;;;;;5014163;28;20447;-74
2021/03/17 12:21:02;;;;;;;1.90;1.15;;;7.70;94.00;;;;;;5018593;28;20030;-74
2021/03/17 12:23:28;;;;;;;2.25;1.30;;;7.80;95.60;;;;;;5024898;28;20041;-74
2021/03/17 12:25:54;;;;;;;2.05;1.27;;;8.10;93.00;;;;;;5015266;28;20021;-74
2021/03/17 12:28:20;;;;;;;2.55;1.50;;;7.50;94.60;;;;;;5015496;28;20021;-74
2021/03/17 12:30:47;;;;;;;3.13;1.67;;;6.10;99.30;;;;;;5022959;28;20033;-74
2021/03/17 12:33:13;;;;;;;2.70;1.67;;;5.70;99.90;;;;;;5027872;28;20022;-74
2021/03/17 12:35:39;;;;;;;4.35;2.35;;;5.60;99.90;;;;;;5015230;28;20360;-74
2021/03/17 12:38:06;;;;;;;3.88;2.50;;;5.40;99.90;;;;;;5014746;28;20341;-74
2021/03/17 12:40:32;;;;;;;3.70;1.98;;;5.10;99.90;;;;;;5014481;28;20474;-75
2021/03/17 12:42:59;;;;;;;3.85;2.20;;;4.90;99.90;;;;;;5029375;28;20041;-74
2021/03/17 12:45:28;;;;;;;3.10;1.90;;;4.80;99.90;;;;;;5032138;28;20037;-74
2021/03/17 12:47:54;;;;;;;4.55;2.45;;;4.50;99.90;;;;;;5032832;28;20474;-74
2021/03/17 12:50:23;;;;;;;7.78;3.00;;;4.20;99.90;;;;;;5018580;28;20475;-74
2021/03/17 12:52:49;;;;;;;5.55;2.92;;;4.10;99.90;;;;;;5020536;28;20504;-74
2021/03/17 12:55:16;;;;;;;11.63;7.63;;;3.90;99.90;;;;;;5029638;28;20368;-73
2021/03/17 12:57:43;;;;;;;7.32;3.67;;;3.80;99.90;;;;;;5014590;28;20034;-73
2021/03/17 13:00:14;;;;;;;6.18;2.70;;;3.70;99.90;;;;;;5015134;28;20029;-74
2021/03/17 13:02:41;;;;;;;6.10;3.13;;;3.70;99.90;;;;;;5014423;28;20045;-74
2021/03/17 13:05:09;;;;;;;6.07;3.40;;;3.70;99.90;;;;;;5014770;28;20022;-73
2021/03/17 13:07:35;;;;;;;7.28;4.95;;;3.60;99.90;;;;;;5014172;28;20033;-74